sensor_id;sensor_type;location;lat;lon;timestamp;pressure;altitude;pressure_sealevel;temperature;humidity
18504;BME280;9381;54.244;10.074;2023-07-16T00:03:06;100192.81;;;21.39;100.00
18504;BME280;9381;54.244;10.074;2023-07-16T00:08:07;100191.28;;;21.33;100.00
18504;BME280;9381;54.244;10.074;2023-07-16T00:13:07;100189.72;;;21.27;100.00
18504;BME280;9381;54.244;10.074;2023-07-16T00:18:07;100185.50;;;21.16;100.00
18504;BME280;9381;54.244;10.074;2023-07-16T00:23:08;100225.00;;;21.20;100.00
18504;BME280;9381;54.244;10.074;2023-07-16T00:28:08;100222.59;;;21.18;100.00
18504;BME280;9381;54.244;10.074;2023-07-16T00:33:08;100198.56;;;21.24;100.00
18504;BME280;9381;54.244;10.074;2023-07-16T00:38:09;100186.81;;;21.00;100.00
18504;BME280;9381;54.244;10.074;2023-07-16T00:43:09;100186.97;;;20.90;100.00
18504;BME280;9381;54.244;10.074;2023-07-16T00:48:10;100168.69;;;20.39;100.00
18504;BME280;9381;54.244;10.074;2023-07-16T00:53:10;100177.03;;;20.52;100.00
18504;BME280;9381;54.244;10.074;2023-07-16T00:58:12;100188.22;;;20.37;100.00
18504;BME280;9381;54.244;10.074;2023-07-16T01:03:13;100183.66;;;20.51;100.00
18504;BME280;9381;54.244;10.074;2023-07-16T01:08:19;100178.59;;;20.58;100.00
18504;BME280;9381;54.244;10.074;2023-07-16T01:13:20;100222.81;;;20.38;100.00
18504;BME280;9381;54.244;10.074;2023-07-16T01:18:21;100213.13;;;20.46;100.00
18504;BME280;9381;54.244;10.074;2023-07-16T01:29:18;100180.34;;;20.49;100.00
18504;BME280;9381;54.244;10.074;2023-07-16T01:34:23;100207.56;;;20.27;100.00
18504;BME280;9381;54.244;10.074;2023-07-16T01:39:25;100216.47;;;20.61;100.00
18504;BME280;9381;54.244;10.074;2023-07-16T01:44:26;100234.59;;;20.62;100.00
18504;BME280;9381;54.244;10.074;2023-07-16T01:49:26;100213.47;;;20.81;100.00
18504;BME280;9381;54.244;10.074;2023-07-16T01:54:26;100224.47;;;20.81;100.00
18504;BME280;9381;54.244;10.074;2023-07-16T01:59:27;100239.22;;;20.90;100.00
18504;BME280;9381;54.244;10.074;2023-07-16T02:04:27;100238.69;;;20.88;100.00
18504;BME280;9381;54.244;10.074;2023-07-16T02:09:28;100241.47;;;20.83;100.00
18504;BME280;9381;54.244;10.074;2023-07-16T02:14:29;100244.44;;;20.92;100.00
18504;BME280;9381;54.244;10.074;2023-07-16T02:19:29;100240.31;;;20.89;100.00
18504;BME280;9381;54.244;10.074;2023-07-16T02:24:29;100221.88;;;20.90;100.00
18504;BME280;9381;54.244;10.074;2023-07-16T02:29:31;100235.50;;;20.76;100.00
18504;BME280;9381;54.244;10.074;2023-07-16T02:34:31;100242.06;;;20.80;100.00
18504;BME280;9381;54.244;10.074;2023-07-16T02:39:32;100264.56;;;20.64;100.00
18504;BME280;9381;54.244;10.074;2023-07-16T02:44:32;100273.53;;;20.69;100.00
18504;BME280;9381;54.244;10.074;2023-07-16T02:49:33;100267.69;;;20.52;100.00
18504;BME280;9381;54.244;10.074;2023-07-16T02:54:35;100242.47;;;20.50;100.00
18504;BME280;9381;54.244;10.074;2023-07-16T02:59:35;100236.94;;;19.98;100.00
18504;BME280;9381;54.244;10.074;2023-07-16T03:04:35;100218.84;;;19.97;100.00
18504;BME280;9381;54.244;10.074;2023-07-16T03:09:36;100225.38;;;20.06;100.00
18504;BME280;9381;54.244;10.074;2023-07-16T03:14:36;100232.09;;;19.90;100.00
18504;BME280;9381;54.244;10.074;2023-07-16T03:19:36;100231.41;;;19.75;100.00
18504;BME280;9381;54.244;10.074;2023-07-16T03:24:37;100231.03;;;19.86;100.00
18504;BME280;9381;54.244;10.074;2023-07-16T03:29:37;100263.09;;;19.91;100.00
18504;BME280;9381;54.244;10.074;2023-07-16T03:34:37;100271.09;;;19.87;100.00
18504;BME280;9381;54.244;10.074;2023-07-16T03:39:38;100259.94;;;20.07;100.00
18504;BME280;9381;54.244;10.074;2023-07-16T03:44:38;100266.75;;;19.81;100.00
18504;BME280;9381;54.244;10.074;2023-07-16T03:49:38;100265.47;;;19.69;100.00
18504;BME280;9381;54.244;10.074;2023-07-16T03:54:39;100266.25;;;19.74;100.00
18504;BME280;9381;54.244;10.074;2023-07-16T03:59:39;100261.19;;;19.58;100.00
18504;BME280;9381;54.244;10.074;2023-07-16T04:04:40;100261.78;;;19.55;100.00
18504;BME280;9381;54.244;10.074;2023-07-16T04:09:40;100261.69;;;19.65;100.00
18504;BME280;9381;54.244;10.074;2023-07-16T04:14:40;100252.59;;;19.69;100.00
18504;BME280;9381;54.244;10.074;2023-07-16T04:19:40;100265.22;;;19.65;100.00
18504;BME280;9381;54.244;10.074;2023-07-16T04:24:41;100274.06;;;19.57;100.00
18504;BME280;9381;54.244;10.074;2023-07-16T04:29:41;100274.03;;;19.62;100.00
18504;BME280;9381;54.244;10.074;2023-07-16T04:34:41;100287.78;;;19.57;100.00
18504;BME280;9381;54.244;10.074;2023-07-16T04:39:42;100287.16;;;19.70;100.00
18504;BME280;9381;54.244;10.074;2023-07-16T04:44:42;100292.19;;;19.92;100.00
18504;BME280;9381;54.244;10.074;2023-07-16T04:49:42;100302.72;;;20.13;100.00
18504;BME280;9381;54.244;10.074;2023-07-16T04:54:43;100299.47;;;20.35;99.96
18504;BME280;9381;54.244;10.074;2023-07-16T04:59:43;100299.81;;;20.28;98.57
18504;BME280;9381;54.244;10.074;2023-07-16T05:04:43;100308.28;;;20.60;97.59
18504;BME280;9381;54.244;10.074;2023-07-16T05:09:48;100313.78;;;20.60;96.52
18504;BME280;9381;54.244;10.074;2023-07-16T05:14:49;100333.56;;;20.57;97.37
18504;BME280;9381;54.244;10.074;2023-07-16T05:19:49;100317.81;;;20.39;97.76
18504;BME280;9381;54.244;10.074;2023-07-16T05:24:50;100331.28;;;20.41;97.35
18504;BME280;9381;54.244;10.074;2023-07-16T05:29:50;100335.72;;;20.08;96.62
18504;BME280;9381;54.244;10.074;2023-07-16T05:34:50;100337.31;;;20.14;96.71
18504;BME280;9381;54.244;10.074;2023-07-16T05:39:51;100336.16;;;20.20;97.24
18504;BME280;9381;54.244;10.074;2023-07-16T05:44:51;100348.75;;;20.21;96.76
18504;BME280;9381;54.244;10.074;2023-07-16T05:49:51;100334.13;;;20.59;96.56
18504;BME280;9381;54.244;10.074;2023-07-16T05:54:52;100339.38;;;20.79;95.99
18504;BME280;9381;54.244;10.074;2023-07-16T05:59:52;100346.84;;;20.50;94.77
18504;BME280;9381;54.244;10.074;2023-07-16T06:04:52;100341.38;;;20.74;94.58
18504;BME280;9381;54.244;10.074;2023-07-16T06:09:52;100349.28;;;21.04;94.05
18504;BME280;9381;54.244;10.074;2023-07-16T06:14:53;100345.25;;;20.96;92.34
18504;BME280;9381;54.244;10.074;2023-07-16T06:19:53;100352.75;;;21.14;92.46
18504;BME280;9381;54.244;10.074;2023-07-16T06:24:54;100342.94;;;21.45;90.42
18504;BME280;9381;54.244;10.074;2023-07-16T06:29:54;100342.34;;;21.48;89.75
18504;BME280;9381;54.244;10.074;2023-07-16T06:34:54;100352.69;;;21.37;87.08
18504;BME280;9381;54.244;10.074;2023-07-16T06:39:54;100351.06;;;21.36;85.69
18504;BME280;9381;54.244;10.074;2023-07-16T06:44:55;100347.59;;;21.68;85.49
18504;BME280;9381;54.244;10.074;2023-07-16T06:49:55;100348.13;;;21.70;83.85
18504;BME280;9381;54.244;10.074;2023-07-16T06:54:56;100342.19;;;21.58;81.39
18504;BME280;9381;54.244;10.074;2023-07-16T06:59:56;100355.78;;;21.91;81.06
18504;BME280;9381;54.244;10.074;2023-07-16T07:04:59;100356.56;;;21.92;78.44
18504;BME280;9381;54.244;10.074;2023-07-16T07:10:00;100353.69;;;22.15;78.96
18504;BME280;9381;54.244;10.074;2023-07-16T07:15:00;100367.50;;;21.97;76.98
18504;BME280;9381;54.244;10.074;2023-07-16T07:20:01;100362.09;;;22.24;77.19
18504;BME280;9381;54.244;10.074;2023-07-16T07:25:02;100371.91;;;22.30;76.46
18504;BME280;9381;54.244;10.074;2023-07-16T07:30:03;100398.81;;;22.19;75.66
18504;BME280;9381;54.244;10.074;2023-07-16T07:35:03;100380.28;;;22.57;75.52
18504;BME280;9381;54.244;10.074;2023-07-16T07:40:04;100382.03;;;22.66;73.55
18504;BME280;9381;54.244;10.074;2023-07-16T07:45:05;100389.88;;;22.59;73.77
18504;BME280;9381;54.244;10.074;2023-07-16T07:50:06;100406.22;;;22.37;71.82
18504;BME280;9381;54.244;10.074;2023-07-16T07:55:06;100378.59;;;22.42;72.59
18504;BME280;9381;54.244;10.074;2023-07-16T08:00:07;100396.19;;;22.28;71.68
18504;BME280;9381;54.244;10.074;2023-07-16T08:05:11;100388.34;;;22.35;72.57
18504;BME280;9381;54.244;10.074;2023-07-16T08:10:11;100390.63;;;22.78;70.40
18504;BME280;9381;54.244;10.074;2023-07-16T08:15:12;100390.75;;;23.00;70.04
18504;BME280;9381;54.244;10.074;2023-07-16T08:20:15;100405.09;;;23.16;68.95
18504;BME280;9381;54.244;10.074;2023-07-16T08:25:15;100400.25;;;23.48;68.21
18504;BME280;9381;54.244;10.074;2023-07-16T08:30:16;100409.75;;;23.56;68.59
18504;BME280;9381;54.244;10.074;2023-07-16T08:35:16;100395.53;;;23.49;67.58
18504;BME280;9381;54.244;10.074;2023-07-16T08:40:17;100398.00;;;23.37;67.09
18504;BME280;9381;54.244;10.074;2023-07-16T08:45:19;100404.75;;;23.17;66.65
18504;BME280;9381;54.244;10.074;2023-07-16T08:50:22;100397.59;;;23.30;67.54
18504;BME280;9381;54.244;10.074;2023-07-16T08:55:24;100409.03;;;23.50;66.37
18504;BME280;9381;54.244;10.074;2023-07-16T09:00:26;100394.91;;;23.65;66.44
18504;BME280;9381;54.244;10.074;2023-07-16T09:05:26;100412.50;;;23.56;68.11
18504;BME280;9381;54.244;10.074;2023-07-16T09:10:29;100407.47;;;23.58;65.05
18504;BME280;9381;54.244;10.074;2023-07-16T09:15:30;100425.19;;;23.43;65.57
18504;BME280;9381;54.244;10.074;2023-07-16T09:20:30;100424.41;;;23.29;65.74
18504;BME280;9381;54.244;10.074;2023-07-16T09:25:31;100409.56;;;24.01;65.42
18504;BME280;9381;54.244;10.074;2023-07-16T09:30:33;100429.03;;;23.69;66.55
18504;BME280;9381;54.244;10.074;2023-07-16T09:35:35;100439.59;;;23.54;65.94
18504;BME280;9381;54.244;10.074;2023-07-16T09:40:37;100440.41;;;23.41;66.80
18504;BME280;9381;54.244;10.074;2023-07-16T09:45:38;100434.00;;;24.30;65.84
18504;BME280;9381;54.244;10.074;2023-07-16T09:50:45;100449.09;;;24.45;62.67
18504;BME280;9381;54.244;10.074;2023-07-16T09:55:48;100449.34;;;24.57;65.32
18504;BME280;9381;54.244;10.074;2023-07-16T10:00:49;100437.09;;;25.02;63.95
18504;BME280;9381;54.244;10.074;2023-07-16T10:05:50;100449.00;;;25.03;62.38
18504;BME280;9381;54.244;10.074;2023-07-16T10:10:56;100458.38;;;24.93;63.50
18504;BME280;9381;54.244;10.074;2023-07-16T10:15:58;100460.06;;;25.03;61.12
18504;BME280;9381;54.244;10.074;2023-07-16T10:21:05;100463.94;;;25.32;59.88
18504;BME280;9381;54.244;10.074;2023-07-16T10:26:11;100469.06;;;24.86;60.54
18504;BME280;9381;54.244;10.074;2023-07-16T10:31:24;100482.84;;;25.30;60.18
18504;BME280;9381;54.244;10.074;2023-07-16T10:36:25;100486.06;;;24.71;61.11
18504;BME280;9381;54.244;10.074;2023-07-16T10:41:25;100489.38;;;24.82;60.50
18504;BME280;9381;54.244;10.074;2023-07-16T10:46:26;100513.09;;;23.77;62.26
18504;BME280;9381;54.244;10.074;2023-07-16T10:51:27;100510.16;;;24.36;63.05
18504;BME280;9381;54.244;10.074;2023-07-16T10:56:28;100492.81;;;25.09;60.58
18504;BME280;9381;54.244;10.074;2023-07-16T11:01:29;100519.19;;;24.85;60.56
18504;BME280;9381;54.244;10.074;2023-07-16T11:06:30;100514.13;;;24.43;60.53
18504;BME280;9381;54.244;10.074;2023-07-16T11:11:30;100527.09;;;24.21;62.26
18504;BME280;9381;54.244;10.074;2023-07-16T11:16:34;100524.94;;;24.18;63.34
18504;BME280;9381;54.244;10.074;2023-07-16T11:21:36;100536.06;;;23.91;63.19
18504;BME280;9381;54.244;10.074;2023-07-16T11:26:36;100541.13;;;23.84;65.54
18504;BME280;9381;54.244;10.074;2023-07-16T11:31:38;100543.59;;;23.58;65.85
18504;BME280;9381;54.244;10.074;2023-07-16T11:36:41;100555.66;;;23.49;65.10
18504;BME280;9381;54.244;10.074;2023-07-16T11:41:41;100557.72;;;24.11;64.20
18504;BME280;9381;54.244;10.074;2023-07-16T11:46:46;100567.72;;;24.91;61.04
18504;BME280;9381;54.244;10.074;2023-07-16T11:51:46;100561.25;;;25.17;59.61
18504;BME280;9381;54.244;10.074;2023-07-16T11:56:47;100571.16;;;25.18;58.87
18504;BME280;9381;54.244;10.074;2023-07-16T12:01:48;100572.91;;;25.14;59.82
18504;BME280;9381;54.244;10.074;2023-07-16T12:06:49;100579.00;;;24.24;62.22
18504;BME280;9381;54.244;10.074;2023-07-16T12:11:49;100587.38;;;24.19;63.53
18504;BME280;9381;54.244;10.074;2023-07-16T12:16:49;100589.97;;;25.08;61.99
18504;BME280;9381;54.244;10.074;2023-07-16T12:21:50;100593.66;;;24.95;61.85
18504;BME280;9381;54.244;10.074;2023-07-16T12:26:50;100594.47;;;25.78;60.68
18504;BME280;9381;54.244;10.074;2023-07-16T12:31:50;100603.53;;;26.01;59.30
18504;BME280;9381;54.244;10.074;2023-07-16T12:36:50;100599.25;;;26.42;57.85
18504;BME280;9381;54.244;10.074;2023-07-16T12:41:51;100603.84;;;25.60;59.59
18504;BME280;9381;54.244;10.074;2023-07-16T12:46:51;100600.91;;;25.57;57.11
18504;BME280;9381;54.244;10.074;2023-07-16T12:51:51;100618.91;;;25.76;56.70
18504;BME280;9381;54.244;10.074;2023-07-16T12:56:52;100597.50;;;26.97;55.85
18504;BME280;9381;54.244;10.074;2023-07-16T13:01:52;100602.31;;;26.15;55.16
18504;BME280;9381;54.244;10.074;2023-07-16T13:06:52;100607.03;;;26.23;55.80
18504;BME280;9381;54.244;10.074;2023-07-16T13:11:52;100614.88;;;26.21;57.78
18504;BME280;9381;54.244;10.074;2023-07-16T13:16:53;100625.56;;;25.97;55.29
18504;BME280;9381;54.244;10.074;2023-07-16T13:21:53;100623.41;;;26.50;52.24
18504;BME280;9381;54.244;10.074;2023-07-16T13:26:53;100625.41;;;27.43;53.67
18504;BME280;9381;54.244;10.074;2023-07-16T13:31:54;100645.69;;;27.01;53.40
18504;BME280;9381;54.244;10.074;2023-07-16T13:36:54;100642.59;;;26.86;51.70
18504;BME280;9381;54.244;10.074;2023-07-16T13:41:54;100646.66;;;26.71;53.24
18504;BME280;9381;54.244;10.074;2023-07-16T13:46:55;100646.63;;;26.88;53.81
18504;BME280;9381;54.244;10.074;2023-07-16T13:51:55;100648.63;;;26.23;52.75
18504;BME280;9381;54.244;10.074;2023-07-16T13:56:55;100635.53;;;26.88;52.78
18504;BME280;9381;54.244;10.074;2023-07-16T14:02:00;100662.63;;;26.57;51.66
18504;BME280;9381;54.244;10.074;2023-07-16T14:07:01;100668.50;;;26.64;52.62
18504;BME280;9381;54.244;10.074;2023-07-16T14:12:01;100666.94;;;26.41;52.34
18504;BME280;9381;54.244;10.074;2023-07-16T14:17:02;100695.03;;;25.79;53.88
18504;BME280;9381;54.244;10.074;2023-07-16T14:22:03;100664.31;;;25.36;55.29
18504;BME280;9381;54.244;10.074;2023-07-16T14:27:06;100664.41;;;26.14;54.65
18504;BME280;9381;54.244;10.074;2023-07-16T14:32:06;100660.59;;;25.93;54.63
18504;BME280;9381;54.244;10.074;2023-07-16T14:37:07;100669.69;;;25.63;54.56
18504;BME280;9381;54.244;10.074;2023-07-16T14:42:07;100675.16;;;25.24;54.97
18504;BME280;9381;54.244;10.074;2023-07-16T14:47:07;100673.50;;;25.45;56.74
18504;BME280;9381;54.244;10.074;2023-07-16T14:52:08;100676.06;;;25.20;56.33
18504;BME280;9381;54.244;10.074;2023-07-16T14:57:08;100698.53;;;25.62;56.08
18504;BME280;9381;54.244;10.074;2023-07-16T15:02:09;100685.28;;;25.59;56.52
18504;BME280;9381;54.244;10.074;2023-07-16T15:07:09;100682.25;;;25.69;56.60
18504;BME280;9381;54.244;10.074;2023-07-16T15:12:09;100684.56;;;25.45;56.61
18504;BME280;9381;54.244;10.074;2023-07-16T15:17:10;100685.56;;;25.49;57.23
18504;BME280;9381;54.244;10.074;2023-07-16T15:22:10;100704.31;;;25.30;56.85
18504;BME280;9381;54.244;10.074;2023-07-16T15:27:10;100702.00;;;24.88;57.24
18504;BME280;9381;54.244;10.074;2023-07-16T15:32:11;100718.72;;;25.05;57.39
18504;BME280;9381;54.244;10.074;2023-07-16T15:37:11;100706.63;;;24.79;57.99
18504;BME280;9381;54.244;10.074;2023-07-16T15:42:13;100693.94;;;25.00;57.49
18504;BME280;9381;54.244;10.074;2023-07-16T15:47:14;100711.56;;;25.04;57.88
18504;BME280;9381;54.244;10.074;2023-07-16T15:52:14;100706.25;;;24.94;58.93
18504;BME280;9381;54.244;10.074;2023-07-16T15:57:15;100705.00;;;24.78;59.19
18504;BME280;9381;54.244;10.074;2023-07-16T16:02:16;100705.03;;;25.00;59.07
18504;BME280;9381;54.244;10.074;2023-07-16T16:07:16;100707.06;;;25.08;59.84
18504;BME280;9381;54.244;10.074;2023-07-16T16:12:19;100704.16;;;25.13;58.95
18504;BME280;9381;54.244;10.074;2023-07-16T16:17:21;100709.13;;;25.03;59.42
18504;BME280;9381;54.244;10.074;2023-07-16T16:22:21;100710.50;;;25.27;59.08
18504;BME280;9381;54.244;10.074;2023-07-16T16:27:21;100715.72;;;24.80;60.94
18504;BME280;9381;54.244;10.074;2023-07-16T16:32:21;100724.34;;;24.78;60.67
18504;BME280;9381;54.244;10.074;2023-07-16T16:37:22;100733.22;;;24.89;62.05
18504;BME280;9381;54.244;10.074;2023-07-16T16:42:22;100720.47;;;24.39;62.14
18504;BME280;9381;54.244;10.074;2023-07-16T16:47:22;100728.63;;;24.31;63.28
18504;BME280;9381;54.244;10.074;2023-07-16T16:52:23;100734.03;;;23.95;61.88
18504;BME280;9381;54.244;10.074;2023-07-16T16:57:24;100736.47;;;23.65;61.64
18504;BME280;9381;54.244;10.074;2023-07-16T17:02:24;100739.19;;;23.70;62.00
18504;BME280;9381;54.244;10.074;2023-07-16T17:07:25;100735.56;;;23.69;61.06
18504;BME280;9381;54.244;10.074;2023-07-16T17:12:25;100737.84;;;23.49;62.98
18504;BME280;9381;54.244;10.074;2023-07-16T17:17:26;100732.44;;;23.44;63.03
18504;BME280;9381;54.244;10.074;2023-07-16T17:22:26;100763.66;;;23.58;63.62
18504;BME280;9381;54.244;10.074;2023-07-16T17:27:26;100755.31;;;23.63;64.54
18504;BME280;9381;54.244;10.074;2023-07-16T17:32:27;100752.78;;;23.48;65.29
18504;BME280;9381;54.244;10.074;2023-07-16T17:37:27;100760.84;;;23.44;65.66
18504;BME280;9381;54.244;10.074;2023-07-16T17:42:27;100767.41;;;23.48;65.98
18504;BME280;9381;54.244;10.074;2023-07-16T17:47:28;100759.78;;;23.59;66.36
18504;BME280;9381;54.244;10.074;2023-07-16T17:52:28;100774.41;;;23.41;66.64
18504;BME280;9381;54.244;10.074;2023-07-16T17:57:28;100782.28;;;23.34;67.13
18504;BME280;9381;54.244;10.074;2023-07-16T18:02:29;100775.56;;;23.21;68.96
18504;BME280;9381;54.244;10.074;2023-07-16T18:07:29;100784.22;;;23.15;69.27
18504;BME280;9381;54.244;10.074;2023-07-16T18:12:29;100794.88;;;23.40;69.58
18504;BME280;9381;54.244;10.074;2023-07-16T18:17:29;100781.47;;;23.15;68.89
18504;BME280;9381;54.244;10.074;2023-07-16T18:22:30;100788.94;;;23.33;69.15
18504;BME280;9381;54.244;10.074;2023-07-16T18:27:31;100787.53;;;23.12;69.59
18504;BME280;9381;54.244;10.074;2023-07-16T18:32:31;100791.31;;;22.97;70.56
18504;BME280;9381;54.244;10.074;2023-07-16T18:37:32;100816.53;;;22.39;76.00
18504;BME280;9381;54.244;10.074;2023-07-16T18:42:32;100821.63;;;21.65;82.37
18504;BME280;9381;54.244;10.074;2023-07-16T18:47:33;100813.97;;;21.13;86.16
18504;BME280;9381;54.244;10.074;2023-07-16T18:52:33;100800.50;;;21.12;86.71
18504;BME280;9381;54.244;10.074;2023-07-16T18:57:33;100805.50;;;21.05;85.85
18504;BME280;9381;54.244;10.074;2023-07-16T19:02:34;100819.53;;;20.99;86.11
18504;BME280;9381;54.244;10.074;2023-07-16T19:07:34;100826.06;;;21.13;85.11
18504;BME280;9381;54.244;10.074;2023-07-16T19:12:34;100831.84;;;21.16;85.41
18504;BME280;9381;54.244;10.074;2023-07-16T19:17:34;100851.50;;;21.43;84.96
18504;BME280;9381;54.244;10.074;2023-07-16T19:22:35;100853.66;;;21.46;85.34
18504;BME280;9381;54.244;10.074;2023-07-16T19:27:35;100860.91;;;21.32;86.66
18504;BME280;9381;54.244;10.074;2023-07-16T19:32:35;100872.22;;;21.25;87.14
18504;BME280;9381;54.244;10.074;2023-07-16T19:37:36;100883.53;;;21.24;87.69
18504;BME280;9381;54.244;10.074;2023-07-16T19:42:36;100882.16;;;21.21;88.28
18504;BME280;9381;54.244;10.074;2023-07-16T19:47:36;100875.16;;;21.44;87.97
18504;BME280;9381;54.244;10.074;2023-07-16T19:52:37;100878.16;;;21.42;88.25
18504;BME280;9381;54.244;10.074;2023-07-16T19:57:38;100873.50;;;21.43;88.75
18504;BME280;9381;54.244;10.074;2023-07-16T20:02:38;100877.31;;;21.52;88.83
18504;BME280;9381;54.244;10.074;2023-07-16T20:07:38;100880.66;;;21.44;89.54
18504;BME280;9381;54.244;10.074;2023-07-16T20:12:39;100872.78;;;21.22;90.61
18504;BME280;9381;54.244;10.074;2023-07-16T20:17:39;100876.38;;;21.18;91.58
18504;BME280;9381;54.244;10.074;2023-07-16T20:23:08;100864.84;;;21.11;91.88
18504;BME280;9381;54.244;10.074;2023-07-16T20:28:17;100873.16;;;21.06;91.96
18504;BME280;9381;54.244;10.074;2023-07-16T20:33:17;100868.75;;;21.05;92.24
18504;BME280;9381;54.244;10.074;2023-07-16T20:38:17;100876.97;;;21.10;92.39
18504;BME280;9381;54.244;10.074;2023-07-16T20:43:18;100879.16;;;21.13;92.11
18504;BME280;9381;54.244;10.074;2023-07-16T20:48:18;100877.00;;;21.05;92.06
18504;BME280;9381;54.244;10.074;2023-07-16T20:53:20;100870.41;;;21.01;92.17
18504;BME280;9381;54.244;10.074;2023-07-16T20:58:20;100871.81;;;20.89;92.28
18504;BME280;9381;54.244;10.074;2023-07-16T21:03:20;100871.00;;;20.83;92.63
18504;BME280;9381;54.244;10.074;2023-07-16T21:08:21;100869.13;;;20.69;93.33
18504;BME280;9381;54.244;10.074;2023-07-16T21:13:21;100879.34;;;20.53;94.31
18504;BME280;9381;54.244;10.074;2023-07-16T21:18:21;100872.22;;;20.42;94.68
18504;BME280;9381;54.244;10.074;2023-07-16T21:23:22;100874.44;;;20.40;94.74
18504;BME280;9381;54.244;10.074;2023-07-16T21:28:25;100878.25;;;20.29;95.34
18504;BME280;9381;54.244;10.074;2023-07-16T21:33:25;100867.84;;;20.26;95.37
18504;BME280;9381;54.244;10.074;2023-07-16T21:38:25;100871.69;;;20.20;95.53
18504;BME280;9381;54.244;10.074;2023-07-16T21:43:26;100862.34;;;20.11;96.24
18504;BME280;9381;54.244;10.074;2023-07-16T21:48:26;100857.97;;;20.10;96.85
18504;BME280;9381;54.244;10.074;2023-07-16T21:53:26;100869.47;;;20.12;97.07
18504;BME280;9381;54.244;10.074;2023-07-16T21:58:26;100868.41;;;20.13;97.09
18504;BME280;9381;54.244;10.074;2023-07-16T22:03:27;100859.06;;;20.14;97.97
18504;BME280;9381;54.244;10.074;2023-07-16T22:08:27;100858.78;;;20.21;98.07
18504;BME280;9381;54.244;10.074;2023-07-16T22:13:28;100864.00;;;20.17;97.85
18504;BME280;9381;54.244;10.074;2023-07-16T22:18:31;100861.81;;;20.14;98.19
18504;BME280;9381;54.244;10.074;2023-07-16T22:23:31;100853.59;;;20.04;97.13
18504;BME280;9381;54.244;10.074;2023-07-16T22:28:32;100864.25;;;20.16;96.64
18504;BME280;9381;54.244;10.074;2023-07-16T22:33:32;100861.00;;;20.19;95.91
18504;BME280;9381;54.244;10.074;2023-07-16T22:38:32;100860.69;;;20.25;95.55
18504;BME280;9381;54.244;10.074;2023-07-16T22:43:33;100858.50;;;20.22;94.80
18504;BME280;9381;54.244;10.074;2023-07-16T22:48:37;100870.56;;;20.21;95.28
18504;BME280;9381;54.244;10.074;2023-07-16T22:53:38;100865.06;;;20.21;94.69
18504;BME280;9381;54.244;10.074;2023-07-16T22:58:41;100872.22;;;20.12;94.46
18504;BME280;9381;54.244;10.074;2023-07-16T23:03:41;100866.75;;;20.07;94.82
18504;BME280;9381;54.244;10.074;2023-07-16T23:08:42;100874.97;;;19.97;94.94
18504;BME280;9381;54.244;10.074;2023-07-16T23:13:42;100871.13;;;19.98;95.15
18504;BME280;9381;54.244;10.074;2023-07-16T23:18:42;100885.94;;;19.97;94.70
18504;BME280;9381;54.244;10.074;2023-07-16T23:23:43;100884.31;;;19.96;94.82
18504;BME280;9381;54.244;10.074;2023-07-16T23:28:43;100884.81;;;19.93;94.44
18504;BME280;9381;54.244;10.074;2023-07-16T23:33:46;100875.50;;;19.84;94.11
18504;BME280;9381;54.244;10.074;2023-07-16T23:38:46;100874.94;;;19.67;94.99
18504;BME280;9381;54.244;10.074;2023-07-16T23:43:46;100874.38;;;19.75;94.36
18504;BME280;9381;54.244;10.074;2023-07-16T23:48:46;100868.91;;;19.70;94.72
18504;BME280;9381;54.244;10.074;2023-07-16T23:53:47;100868.34;;;19.73;95.03
18504;BME280;9381;54.244;10.074;2023-07-16T23:58:47;100873.56;;;19.70;95.21
